createdAt,value
2018-06-13T06:37:23.707Z,2.90
2018-06-13T06:38:23.658Z,3.00
2018-06-13T06:39:23.706Z,3.30
2018-06-13T06:40:23.715Z,2.90
2018-06-13T06:41:23.762Z,3.50
2018-06-13T06:42:23.665Z,3.60
2018-06-13T06:43:23.735Z,3.00
2018-06-13T06:44:23.700Z,2.90
2018-06-13T06:45:23.703Z,3.20
2018-06-13T06:46:23.729Z,3.10
2018-06-13T06:47:24.793Z,3.30
2018-06-13T06:48:23.721Z,3.20
2018-06-13T06:49:23.795Z,3.80
2018-06-13T06:50:23.764Z,3.10
2018-06-13T06:51:23.815Z,3.30
2018-06-13T06:52:23.800Z,3.40
2018-06-13T06:53:23.841Z,3.50
2018-06-13T06:54:23.777Z,3.40
2018-06-13T06:55:23.820Z,3.60
2018-06-13T06:56:23.877Z,3.30
2018-06-13T06:57:23.957Z,3.40
2018-06-13T06:58:23.871Z,3.00
2018-06-13T06:59:23.962Z,4.30
2018-06-13T07:00:23.850Z,3.50
2018-06-13T07:01:23.973Z,3.10
2018-06-13T07:02:23.909Z,4.40
2018-06-13T07:03:25.013Z,3.10
2018-06-13T07:04:23.925Z,3.20
2018-06-13T07:05:23.988Z,4.00
2018-06-13T07:06:23.934Z,3.10
2018-06-13T07:07:25.059Z,3.70
2018-06-13T07:08:23.969Z,3.10
2018-06-13T07:09:23.951Z,3.10
2018-06-13T07:10:24.033Z,3.20
2018-06-13T07:11:23.990Z,2.60
2018-06-13T07:12:24.029Z,3.10
2018-06-13T07:13:23.991Z,3.10
2018-06-13T07:14:36.028Z,2.90
2018-06-13T07:15:24.001Z,2.50
2018-06-13T07:16:29.061Z,2.30
2018-06-13T07:17:24.041Z,2.60
2018-06-13T07:18:24.068Z,2.90
2018-06-13T07:19:24.091Z,2.70
2018-06-13T07:20:24.061Z,3.10
2018-06-13T07:21:24.080Z,2.40
2018-06-13T07:22:24.096Z,2.70
2018-06-13T07:23:24.099Z,2.70
2018-06-13T07:24:24.134Z,2.60
2018-06-13T07:25:24.094Z,2.60
2018-06-13T07:26:24.234Z,2.90
2018-06-13T07:27:24.125Z,2.90
2018-06-13T07:28:24.247Z,3.50
2018-06-13T07:29:24.141Z,3.20
2018-06-13T07:30:24.300Z,2.40
2018-06-13T07:31:24.159Z,2.10
2018-06-13T07:32:25.210Z,2.20
2018-06-13T07:33:24.181Z,2.20
2018-06-13T07:34:24.286Z,2.30
2018-06-13T07:35:24.222Z,2.30
2018-06-13T07:36:24.293Z,2.10
2018-06-13T07:37:24.235Z,2.00
2018-06-13T07:38:24.304Z,2.20
2018-06-13T07:39:24.246Z,2.50
2018-06-13T07:40:24.341Z,2.10
2018-06-13T07:41:24.322Z,2.10
2018-06-13T07:42:24.334Z,2.20
2018-06-13T07:43:24.296Z,2.20
2018-06-13T07:44:24.357Z,2.50
2018-06-13T07:45:24.288Z,2.60
2018-06-13T07:46:24.349Z,2.70
2018-06-13T07:47:24.316Z,2.00
2018-06-13T07:48:24.371Z,2.20
2018-06-13T07:49:24.328Z,2.70
2018-06-13T07:50:24.399Z,2.10
2018-06-13T07:51:24.366Z,2.50
2018-06-13T07:52:24.417Z,2.40
2018-06-13T07:53:24.383Z,2.00
2018-06-13T07:54:24.417Z,2.40
2018-06-13T07:55:24.410Z,2.00
2018-06-13T07:56:24.419Z,2.20
2018-06-13T07:57:24.404Z,2.00
2018-06-13T07:58:24.545Z,1.90
2018-06-13T07:59:24.445Z,2.00
2018-06-13T08:00:24.558Z,2.20
2018-06-13T08:01:24.457Z,1.60
2018-06-13T08:02:24.581Z,2.20
2018-06-13T08:03:24.495Z,2.20
2018-06-13T08:04:24.584Z,2.20
2018-06-13T08:05:24.512Z,2.00
2018-06-13T08:06:24.585Z,1.90
2018-06-13T08:07:24.534Z,2.10
2018-06-13T08:08:24.692Z,2.10
2018-06-13T08:09:24.526Z,2.10
2018-06-13T08:10:24.627Z,2.10
2018-06-13T08:11:24.581Z,2.20
2018-06-13T08:12:29.454Z,2.30
2018-06-13T08:13:24.585Z,2.50
2018-06-13T08:14:24.670Z,2.80
2018-06-13T08:15:24.788Z,2.50
2018-06-13T08:16:24.699Z,1.90
2018-06-13T08:17:24.626Z,2.20
2018-06-13T08:18:25.707Z,2.30
2018-06-13T08:19:24.665Z,2.50
2018-06-13T08:20:24.674Z,2.20
2018-06-13T08:21:24.665Z,2.10
2018-06-13T08:22:25.775Z,2.30
2018-06-13T08:23:24.735Z,2.20
2018-06-13T08:24:24.855Z,2.50
2018-06-13T08:25:24.711Z,2.50
2018-06-13T08:26:26.924Z,2.10
2018-06-13T08:27:24.743Z,2.20
2018-06-13T08:28:25.852Z,2.00
2018-06-13T08:29:24.790Z,2.10
2018-06-13T08:30:24.948Z,2.40
2018-06-13T08:31:24.778Z,2.20
2018-06-13T08:32:29.648Z,2.10
2018-06-13T08:33:24.793Z,2.10
2018-06-13T08:34:24.980Z,2.30
2018-06-13T08:35:24.831Z,2.20
2018-06-13T08:36:25.031Z,2.20
2018-06-13T08:37:24.855Z,3.10
2018-06-13T08:38:26.062Z,2.40
2018-06-13T08:39:24.901Z,2.40
2018-06-13T08:40:27.005Z,2.10
2018-06-13T08:41:24.873Z,2.10
2018-06-13T08:42:24.916Z,2.60
2018-06-13T08:43:26.117Z,2.70
2018-06-13T08:44:24.888Z,2.10
2018-06-13T08:45:26.106Z,2.30
2018-06-13T08:46:24.944Z,2.10
2018-06-13T08:47:27.205Z,2.40
2018-06-13T08:48:24.954Z,2.80
2018-06-13T08:49:27.131Z,3.60
2018-06-13T08:50:24.979Z,2.50
2018-06-13T08:51:26.141Z,3.30
2018-06-13T08:52:24.995Z,3.40
2018-06-13T08:53:25.120Z,3.40
2018-06-13T08:54:25.003Z,2.20
2018-06-13T08:55:25.060Z,2.50
2018-06-13T08:56:25.011Z,2.70
2018-06-13T08:57:25.020Z,2.60
2018-06-13T08:58:25.021Z,2.20
2018-06-13T08:59:25.030Z,2.00
2018-06-13T09:00:25.044Z,2.00
2018-06-13T09:01:25.204Z,2.90
2018-06-13T09:02:25.069Z,1.80
2018-06-13T09:03:25.090Z,2.00
2018-06-13T09:04:25.105Z,2.50
2018-06-13T09:05:25.097Z,2.00
2018-06-13T09:06:25.102Z,2.40
2018-06-13T09:07:25.270Z,2.40
2018-06-13T09:08:25.127Z,2.10
2018-06-13T09:09:25.132Z,1.90
2018-06-13T09:10:25.152Z,2.00
2018-06-13T09:11:25.139Z,2.00
2018-06-13T09:12:25.179Z,1.90
2018-06-13T09:13:25.179Z,2.10
2018-06-13T09:14:25.186Z,2.40
2018-06-13T09:15:25.196Z,2.30
2018-06-13T09:16:25.230Z,2.30
2018-06-13T09:17:25.204Z,2.00
2018-06-13T09:18:25.225Z,2.00
2018-06-13T09:19:25.236Z,1.90
2018-06-13T09:20:25.334Z,2.00
2018-06-13T09:21:25.250Z,1.90
2018-06-13T09:22:25.351Z,2.00
2018-06-13T09:23:25.283Z,1.90
2018-06-13T09:24:25.329Z,2.10
2018-06-13T09:25:25.309Z,2.10
2018-06-13T09:26:27.461Z,2.00
2018-06-13T09:27:25.311Z,1.90
2018-06-13T09:28:27.431Z,1.80
2018-06-13T09:29:25.343Z,2.20
2018-06-13T09:30:25.504Z,2.40
2018-06-13T09:31:25.401Z,2.00
2018-06-13T09:32:25.513Z,1.70
2018-06-13T09:33:25.385Z,1.80
2018-06-13T09:34:26.553Z,2.10
2018-06-13T09:35:25.461Z,2.20
2018-06-13T09:36:25.577Z,2.10
2018-06-13T09:37:25.534Z,2.40
2018-06-13T09:38:25.553Z,2.10
2018-06-13T09:39:25.466Z,2.00
2018-06-13T09:40:32.116Z,2.20
2018-06-13T09:41:25.453Z,2.10
2018-06-13T09:42:25.574Z,2.10
2018-06-13T09:43:25.472Z,2.00
2018-06-13T09:44:25.580Z,2.80
2018-06-13T09:45:25.502Z,2.30
2018-06-13T09:46:27.683Z,2.60
2018-06-13T09:47:25.525Z,2.00
2018-06-13T09:48:27.667Z,2.40
2018-06-13T09:49:25.564Z,2.30
2018-06-13T09:50:31.567Z,2.00
2018-06-13T09:51:25.559Z,2.20
2018-06-13T09:52:25.674Z,2.10
2018-06-13T09:53:25.580Z,2.20
2018-06-13T09:54:27.714Z,2.40
2018-06-13T09:55:25.601Z,2.30
2018-06-13T09:56:25.769Z,2.40
2018-06-13T09:57:25.626Z,1.90
2018-06-13T09:58:25.788Z,1.80
2018-06-13T09:59:25.625Z,1.90
2018-06-13T10:00:30.590Z,1.90
2018-06-13T10:01:25.688Z,2.00
2018-06-13T10:02:25.879Z,2.00
2018-06-13T10:03:25.697Z,2.00
2018-06-13T10:04:30.590Z,1.90
2018-06-13T10:05:25.714Z,2.00
2018-06-13T10:06:26.857Z,2.10
2018-06-13T10:07:25.711Z,1.90
2018-06-13T10:08:25.835Z,1.80
2018-06-13T10:09:25.737Z,1.70
2018-06-13T10:10:25.862Z,1.90
2018-06-13T10:11:25.751Z,1.90
2018-06-13T10:12:25.850Z,2.10
2018-06-13T10:13:25.792Z,2.10
2018-06-13T10:14:26.917Z,2.20
2018-06-13T10:15:25.793Z,2.10
2018-06-13T10:16:25.863Z,1.80
2018-06-13T10:17:25.807Z,2.00
2018-06-13T10:18:25.921Z,1.90
2018-06-13T10:19:25.864Z,2.40
2018-06-13T10:20:26.990Z,2.10
2018-06-13T10:21:25.868Z,2.20
2018-06-13T10:22:26.029Z,2.20
2018-06-13T10:23:25.894Z,1.80
2018-06-13T10:24:27.068Z,2.30
2018-06-13T10:25:25.984Z,2.30
2018-06-13T10:26:26.991Z,2.00
2018-06-13T10:27:25.949Z,2.10
2018-06-13T10:28:26.076Z,2.70
2018-06-13T10:29:25.942Z,2.40
2018-06-13T10:30:26.099Z,2.20
2018-06-13T10:31:25.989Z,2.20
2018-06-13T10:32:27.148Z,2.30
2018-06-13T10:33:25.985Z,1.90
2018-06-13T10:34:26.113Z,2.50
2018-06-13T10:35:26.031Z,2.40
2018-06-13T10:36:26.144Z,2.40
2018-06-13T10:37:26.034Z,2.50
2018-06-13T10:38:31.068Z,1.90
2018-06-13T10:39:26.085Z,2.40
2018-06-13T10:40:27.196Z,2.50
2018-06-13T10:41:26.099Z,2.10
2018-06-13T10:42:28.247Z,2.90
2018-06-13T10:43:26.095Z,2.40
2018-06-13T10:44:26.295Z,2.60
2018-06-13T10:45:26.126Z,2.40
2018-06-13T10:46:26.190Z,2.20
2018-06-13T10:47:26.122Z,2.30
2018-06-13T10:48:26.188Z,2.10
2018-06-13T10:49:26.147Z,2.30
2018-06-13T10:50:27.245Z,2.30
2018-06-13T10:51:26.167Z,3.30
2018-06-13T10:52:26.329Z,1.90
2018-06-13T10:53:26.179Z,3.70
2018-06-13T10:54:26.412Z,2.40
2018-06-13T10:55:26.223Z,2.00
2018-06-13T10:56:27.391Z,2.90
2018-06-13T10:57:26.247Z,2.40
2018-06-13T10:58:26.390Z,2.70
2018-06-13T10:59:26.276Z,2.60
2018-06-13T11:00:26.399Z,2.60
2018-06-13T11:01:26.291Z,2.40
2018-06-13T11:02:26.442Z,2.10
2018-06-13T11:03:26.290Z,2.20
2018-06-13T11:04:28.506Z,2.10
2018-06-13T11:05:26.313Z,2.40
2018-06-13T11:06:26.496Z,3.00
2018-06-13T11:07:26.361Z,2.10
2018-06-13T11:08:27.548Z,2.20
2018-06-13T11:09:26.381Z,2.00
2018-06-13T11:10:26.524Z,2.40
2018-06-13T11:11:26.405Z,2.70
2018-06-13T11:12:26.538Z,2.70
2018-06-13T11:13:26.428Z,2.80
2018-06-13T11:14:26.516Z,3.00
2018-06-13T11:15:26.415Z,2.40
2018-06-13T11:16:32.251Z,1.90
2018-06-13T11:17:26.434Z,2.40
2018-06-13T11:18:26.666Z,2.30
2018-06-13T11:19:26.453Z,2.70
2018-06-13T11:20:26.699Z,2.60
2018-06-13T11:21:26.527Z,2.60
2018-06-13T11:22:26.571Z,2.90
2018-06-13T11:23:26.483Z,2.90
2018-06-13T11:24:26.593Z,3.00
2018-06-13T11:25:26.538Z,2.20
2018-06-13T11:26:26.606Z,2.20
2018-06-13T11:27:26.567Z,2.60
2018-06-13T11:28:28.828Z,2.20
2018-06-13T11:29:26.568Z,2.20
2018-06-13T11:30:26.670Z,2.10
2018-06-13T11:31:26.607Z,2.60
2018-06-13T11:32:26.647Z,2.20
2018-06-13T11:33:26.604Z,2.10
2018-06-13T11:34:28.733Z,2.30
2018-06-13T11:35:26.634Z,2.30
2018-06-13T11:36:26.719Z,2.00
2018-06-13T11:37:26.689Z,2.10
2018-06-13T11:38:28.798Z,2.10
2018-06-13T11:39:26.977Z,2.00
2018-06-13T11:40:26.843Z,2.50
2018-06-13T11:41:26.826Z,2.20
2018-06-13T11:42:28.860Z,2.00
2018-06-13T11:43:26.725Z,1.90
2018-06-13T11:44:27.787Z,2.30
2018-06-13T11:45:26.743Z,2.10
2018-06-13T11:46:26.857Z,2.20
2018-06-13T11:47:26.758Z,2.00
2018-06-13T11:48:26.857Z,2.20
2018-06-13T11:49:26.784Z,1.90
2018-06-13T11:50:27.811Z,2.50
2018-06-13T11:51:26.802Z,3.10
2018-06-13T11:52:28.844Z,3.50
2018-06-13T11:53:26.819Z,2.30
2018-06-13T11:54:26.926Z,3.70
2018-06-13T11:55:26.847Z,3.00
2018-06-13T11:56:32.575Z,2.30
2018-06-13T11:57:26.877Z,2.90
2018-06-13T11:58:26.962Z,2.30
2018-06-13T11:59:26.896Z,2.10
2018-06-13T12:00:29.045Z,2.10
2018-06-13T12:01:26.902Z,2.30
2018-06-13T12:02:31.579Z,2.20
2018-06-13T12:03:26.924Z,2.50
2018-06-13T12:04:27.046Z,2.30
2018-06-13T12:05:26.960Z,2.20
2018-06-13T12:06:27.053Z,2.30
2018-06-13T12:07:26.960Z,2.40
2018-06-13T12:08:27.072Z,2.00
2018-06-13T12:09:27.003Z,2.20
2018-06-13T12:10:27.097Z,1.90
2018-06-13T12:11:27.019Z,2.30
2018-06-13T12:12:27.123Z,1.70
2018-06-13T12:13:27.058Z,1.90
2018-06-13T12:14:27.047Z,2.40
2018-06-13T12:15:27.060Z,2.00
2018-06-13T12:16:27.103Z,2.40
2018-06-13T12:17:27.078Z,2.30
2018-06-13T12:18:27.200Z,2.00
2018-06-13T12:19:27.088Z,2.00
2018-06-13T12:20:27.214Z,2.00
2018-06-13T12:21:27.141Z,2.00
2018-06-13T12:22:27.273Z,1.90
2018-06-13T12:23:27.140Z,2.00
2018-06-13T12:24:27.239Z,1.80
2018-06-13T12:25:27.452Z,2.10
2018-06-13T12:29:17.934Z,2.00
2018-06-13T12:30:17.996Z,1.90
2018-06-13T12:31:18.011Z,1.80
2018-06-13T12:32:17.989Z,2.00
2018-06-13T12:33:17.962Z,1.80
2018-06-13T12:34:18.910Z,2.00
2018-06-13T12:35:18.017Z,2.00
2018-06-13T12:36:18.031Z,1.80
2018-06-13T12:37:18.017Z,1.90
2018-06-13T12:38:18.063Z,1.80
2018-06-13T12:39:18.060Z,2.10
2018-06-13T12:40:22.879Z,2.00
2018-06-13T12:41:18.073Z,2.00
2018-06-13T12:42:22.895Z,2.30
2018-06-13T12:43:18.852Z,1.90
2018-06-13T12:44:18.163Z,2.00
2018-06-13T12:45:18.246Z,2.10
2018-06-13T12:46:18.137Z,2.20
2018-06-13T12:47:55.128Z,2.40
2018-06-13T12:48:18.166Z,2.50
2018-06-13T12:49:18.230Z,2.10
2018-06-13T12:58:01.217Z,1.80
2018-06-13T12:58:59.370Z,2.20
2018-06-13T12:59:59.269Z,2.20
2018-06-13T13:00:59.291Z,2.20
2018-06-13T13:01:59.297Z,2.20
2018-06-13T13:02:59.301Z,2.10
2018-06-13T13:03:59.378Z,2.00
2018-06-13T13:04:59.338Z,2.40
2018-06-13T13:05:59.354Z,2.40
2018-06-13T13:06:59.355Z,2.40
2018-06-13T13:07:59.372Z,2.80
2018-06-13T13:08:59.381Z,2.10
2018-06-13T13:09:59.383Z,2.50
2018-06-13T13:10:59.439Z,2.80
2018-06-13T13:11:59.429Z,2.40
2018-06-13T13:12:59.444Z,3.10
2018-06-13T13:14:00.520Z,3.30
2018-06-13T13:14:59.441Z,2.50
2018-06-13T13:16:00.486Z,2.90
2018-06-13T13:16:59.468Z,3.00
2018-06-13T13:17:59.531Z,2.20
2018-06-13T13:18:59.586Z,2.30
2018-06-13T13:19:59.495Z,2.20
2018-06-13T13:20:59.530Z,2.30
2018-06-13T13:21:59.568Z,2.30
2018-06-13T13:22:59.541Z,2.30
2018-06-13T13:23:59.541Z,2.30
2018-06-13T13:24:59.589Z,2.50
2018-06-13T13:25:59.645Z,2.60
2018-06-13T13:26:59.625Z,2.30
2018-06-13T13:27:59.761Z,3.10
2018-06-13T13:28:59.619Z,2.70
2018-06-13T13:29:59.683Z,2.40
2018-06-13T13:31:06.264Z,2.70
2018-06-13T13:31:59.718Z,2.70
2018-06-13T13:33:00.831Z,2.90
2018-06-13T13:33:59.864Z,2.70
2018-06-13T13:35:00.031Z,2.50
2018-06-13T13:35:59.700Z,2.60
2018-06-13T13:37:00.856Z,2.30
2018-06-13T13:37:59.743Z,2.10
2018-06-13T13:38:59.765Z,2.30
2018-06-13T13:39:59.776Z,2.10
2018-06-13T13:41:02.133Z,2.20
2018-06-13T13:41:59.791Z,2.40
2018-06-13T13:42:59.753Z,2.20
2018-06-13T13:43:59.883Z,2.10
2018-06-13T13:44:59.799Z,2.40
2018-06-13T13:46:05.735Z,2.70
2018-06-13T13:46:59.816Z,2.40
2018-06-13T13:47:59.954Z,2.20
2018-06-13T13:48:59.847Z,2.80
2018-06-13T13:50:00.976Z,2.20
2018-06-13T13:50:59.860Z,2.90
2018-06-13T13:52:04.750Z,2.50
2018-06-13T13:52:59.914Z,2.30
2018-06-13T13:54:00.038Z,2.60
2018-06-13T13:54:59.919Z,2.60
2018-06-13T13:55:59.929Z,2.30
2018-06-13T13:56:59.924Z,2.30
2018-06-13T13:58:00.013Z,2.40
2018-06-13T13:58:59.962Z,2.30
2018-06-13T14:00:02.107Z,2.70
2018-06-13T14:01:00.029Z,2.80
2018-06-13T14:02:02.079Z,2.60
2018-06-13T14:03:00.064Z,2.50
2018-06-13T14:04:00.027Z,2.80
2018-06-13T14:05:00.131Z,2.30
2018-06-13T14:06:05.806Z,2.50
2018-06-13T14:07:00.330Z,2.10
2018-06-13T14:08:00.261Z,2.10
2018-06-13T14:09:00.041Z,2.40
2018-06-13T14:10:00.171Z,2.10
2018-06-13T14:11:00.108Z,2.20
2018-06-13T14:12:00.201Z,2.50
2018-06-13T14:13:00.109Z,2.50
2018-06-13T14:14:04.809Z,2.60
2018-06-13T14:15:00.148Z,2.60
2018-06-13T14:16:00.152Z,2.40
2018-06-13T14:17:02.351Z,2.30
2018-06-13T14:18:00.227Z,2.40
2018-06-13T14:19:00.262Z,2.40
2018-06-13T14:20:00.182Z,2.60
2018-06-13T14:21:00.262Z,2.50
2018-06-13T14:22:00.263Z,2.30
2018-06-13T14:23:00.260Z,2.90
2018-06-13T14:24:00.230Z,2.40
2018-06-13T14:25:22.314Z,2.60
2018-06-13T14:26:00.347Z,2.20
2018-06-13T14:27:05.352Z,2.30
2018-06-13T14:28:00.291Z,2.80
2018-06-13T14:29:30.306Z,2.10
2018-06-13T14:30:00.331Z,2.60
2018-06-13T14:31:00.323Z,2.40
2018-06-13T14:32:05.353Z,2.20
2018-06-13T14:33:00.320Z,2.50
2018-06-13T14:34:01.500Z,2.60
2018-06-13T14:35:00.357Z,2.20
2018-06-13T14:36:01.463Z,2.30
2018-06-13T14:37:00.363Z,2.30
2018-06-13T14:38:02.498Z,2.40
2018-06-13T14:39:00.401Z,2.50
2018-06-13T14:40:00.494Z,2.60
2018-06-13T14:41:00.424Z,2.30
2018-06-13T14:42:00.485Z,2.60
2018-06-13T14:43:00.475Z,2.20
2018-06-13T14:44:00.501Z,2.20
2018-06-13T14:45:00.450Z,2.30
2018-06-13T14:46:07.309Z,2.10
2018-06-13T14:47:00.549Z,2.40
2018-06-13T14:48:00.585Z,2.20
2018-06-13T14:49:00.627Z,2.30
2018-06-13T14:50:11.385Z,2.70
2018-06-13T14:51:00.532Z,3.70
2018-06-13T14:52:07.356Z,3.00
2018-06-13T14:53:00.608Z,3.20
2018-06-13T14:54:07.369Z,2.20
2018-06-13T14:55:00.597Z,2.30
2018-06-13T14:56:00.714Z,2.30
2018-06-13T14:57:00.808Z,1.90
2018-06-13T14:58:06.323Z,2.50
2018-06-13T14:59:00.618Z,2.20
2018-06-13T15:00:01.726Z,2.50
2018-06-13T15:01:00.637Z,2.50
2018-06-13T15:02:00.715Z,2.50
2018-06-13T15:03:00.653Z,2.20
2018-06-13T15:04:02.789Z,2.30
2018-06-13T15:05:00.682Z,2.20
2018-06-13T15:06:01.773Z,2.20
2018-06-13T15:07:00.706Z,2.50
2018-06-13T15:08:05.396Z,2.30
2018-06-13T15:09:00.736Z,2.00
2018-06-13T15:10:00.763Z,2.30
2018-06-13T15:11:01.804Z,2.00
2018-06-13T15:12:00.799Z,2.30
2018-06-13T15:13:00.942Z,2.30
2018-06-13T15:14:00.787Z,2.20
2018-06-13T15:15:00.897Z,2.10
2018-06-13T15:16:00.793Z,2.30
2018-06-13T15:17:00.810Z,2.10
2018-06-13T15:18:00.909Z,2.30
2018-06-13T15:19:00.905Z,2.30
2018-06-13T15:20:00.855Z,2.30
2018-06-13T15:21:00.947Z,2.20
2018-06-13T15:22:00.885Z,2.30
2018-06-13T15:23:00.888Z,2.20
2018-06-13T15:24:00.953Z,2.30
2018-06-13T15:25:00.913Z,2.20
2018-06-13T15:26:03.028Z,2.40
2018-06-13T15:27:00.911Z,2.30
2018-06-13T15:28:00.942Z,2.20
2018-06-13T15:29:00.985Z,2.60
2018-06-13T15:30:00.965Z,2.30
2018-06-13T15:31:00.982Z,2.20
2018-06-13T15:32:06.611Z,2.40
2018-06-13T15:33:06.511Z,2.10
2018-06-13T15:34:06.495Z,2.30
2018-06-13T15:35:06.559Z,1.80
2018-06-13T15:36:08.686Z,2.10
2018-06-13T15:37:06.582Z,2.00
2018-06-13T15:38:06.634Z,2.40
2018-06-13T15:39:06.567Z,2.50
2018-06-13T15:40:07.655Z,2.70
2018-06-13T15:41:06.573Z,3.00
2018-06-13T15:42:06.658Z,2.70
2018-06-13T15:43:06.611Z,2.60
2018-06-13T15:44:06.979Z,2.60
2018-06-13T15:45:06.658Z,2.40
2018-06-13T15:46:07.731Z,2.40
2018-06-13T15:47:06.678Z,2.60
2018-06-13T15:48:11.326Z,2.50
2018-06-13T15:49:06.681Z,2.50
2018-06-13T15:50:06.718Z,2.50
2018-06-13T15:51:06.686Z,2.80
2018-06-13T15:52:07.771Z,2.30
2018-06-13T15:53:06.734Z,2.50
2018-06-13T15:54:06.745Z,2.20
2018-06-13T15:55:06.880Z,2.30
2018-06-13T15:56:06.796Z,2.40
2018-06-13T15:57:06.893Z,2.20
2018-06-13T15:58:06.799Z,2.20
2018-06-13T15:59:07.930Z,2.20
2018-06-13T16:00:06.825Z,2.40
2018-06-13T16:01:09.271Z,2.40
2018-06-13T16:02:06.847Z,2.00
2018-06-13T16:03:06.912Z,2.00
2018-06-13T16:04:06.892Z,2.10
2018-06-13T16:05:06.922Z,2.50
2018-06-13T16:06:06.928Z,2.10
2018-06-13T16:07:07.978Z,2.10
2018-06-13T16:08:06.912Z,2.10
2018-06-13T16:09:06.970Z,2.40
2018-06-13T16:10:06.949Z,2.20
2018-06-13T16:11:07.000Z,2.30
2018-06-13T16:12:06.970Z,2.00
2018-06-13T16:13:08.051Z,2.10
2018-06-13T16:14:07.029Z,1.90
2018-06-13T16:15:06.987Z,2.10
2018-06-13T16:16:06.981Z,2.30
2018-06-13T16:17:07.108Z,2.20
2018-06-13T16:18:06.996Z,2.10
2018-06-13T16:19:07.036Z,2.50
2018-06-13T16:20:08.078Z,2.10
2018-06-13T16:21:07.058Z,2.20
2018-06-13T16:22:07.074Z,2.00
2018-06-13T16:23:08.195Z,2.20
2018-06-13T16:24:07.131Z,2.50
2018-06-13T16:25:07.307Z,2.30
2018-06-13T16:26:07.093Z,2.00
2018-06-13T16:27:08.249Z,2.10
2018-06-13T16:28:07.123Z,2.00
2018-06-13T16:29:07.192Z,2.00
2018-06-13T16:30:07.228Z,2.20
2018-06-13T16:31:07.191Z,1.90
2018-06-13T16:32:07.197Z,2.20
2018-06-13T16:33:07.217Z,2.50
2018-06-13T16:34:07.206Z,2.10
2018-06-13T16:35:07.219Z,2.20
2018-06-13T16:36:07.224Z,2.50
2018-06-13T16:37:07.254Z,2.50
2018-06-13T16:38:07.254Z,2.50
2018-06-13T16:39:07.366Z,2.10
2018-06-13T16:40:07.327Z,2.10
2018-06-13T16:41:11.870Z,2.20
2018-06-13T16:42:07.304Z,2.10
2018-06-13T16:43:07.412Z,2.50
2018-06-13T16:44:07.306Z,2.00
2018-06-13T16:45:07.316Z,2.30
2018-06-13T16:46:07.335Z,2.40
2018-06-13T16:47:07.340Z,2.40
2018-06-13T16:48:07.476Z,2.20
2018-06-13T16:49:07.370Z,2.00
2018-06-13T16:50:07.388Z,2.20
2018-06-13T16:51:07.398Z,2.40
2018-06-13T16:52:07.397Z,2.20
2018-06-13T16:53:07.489Z,2.60
2018-06-13T16:54:07.449Z,2.30
2018-06-13T16:55:12.413Z,2.00
2018-06-13T16:56:07.435Z,2.40
2018-06-13T16:57:07.511Z,2.20
2018-06-13T16:58:07.467Z,2.30
2018-06-13T16:59:08.526Z,2.40
2018-06-13T17:00:07.492Z,2.50
2018-06-13T17:01:07.502Z,2.20
2018-06-13T17:02:07.497Z,2.20
2018-06-13T17:03:08.571Z,2.30
2018-06-13T17:04:07.555Z,2.40
2018-06-13T17:05:12.384Z,1.90
2018-06-13T17:06:07.669Z,2.20
2018-06-13T17:07:08.681Z,2.00
2018-06-13T17:08:07.578Z,2.50
2018-06-13T17:09:07.668Z,2.00
2018-06-13T17:10:07.631Z,2.20
2018-06-13T17:11:12.421Z,2.40
2018-06-13T17:12:07.644Z,2.00
2018-06-13T17:13:07.706Z,2.10
2018-06-13T17:14:07.665Z,2.10
2018-06-13T17:15:08.777Z,2.10
2018-06-13T17:16:07.704Z,2.50
2018-06-13T17:17:09.751Z,3.00
2018-06-13T17:18:07.678Z,2.60
2018-06-13T17:19:08.202Z,2.40
2018-06-13T17:20:07.851Z,2.50
2018-06-13T17:21:08.733Z,2.10
2018-06-13T17:22:09.837Z,2.20
2018-06-13T17:23:07.763Z,2.20
2018-06-13T17:24:07.799Z,2.40
2018-06-13T17:25:07.805Z,2.80
2018-06-13T17:26:07.953Z,2.50
2018-06-13T17:27:07.821Z,2.10
2018-06-13T17:28:07.899Z,2.20
2018-06-13T17:29:07.821Z,2.30
2018-06-13T17:30:12.430Z,2.30
2018-06-13T17:31:07.819Z,2.60
2018-06-13T17:32:13.874Z,2.10
2018-06-13T17:33:07.879Z,2.10
2018-06-13T17:34:07.966Z,2.20
2018-06-13T17:35:07.877Z,2.50
2018-06-13T17:36:14.925Z,2.30
2018-06-13T17:37:07.893Z,2.40
2018-06-13T17:38:07.919Z,2.20
2018-06-13T17:39:07.993Z,2.10
2018-06-13T17:40:07.944Z,2.20
2018-06-13T17:41:09.016Z,2.30
2018-06-13T17:42:07.967Z,2.00
2018-06-13T17:43:09.045Z,1.90
2018-06-13T17:44:07.995Z,2.40
2018-06-13T17:45:09.173Z,2.10
2018-06-13T17:46:08.014Z,2.10
2018-06-13T17:47:08.061Z,2.20
2018-06-13T17:48:08.032Z,2.00
2018-06-13T17:49:09.094Z,2.10
2018-06-13T17:50:08.052Z,2.00
2018-06-13T17:51:09.115Z,2.20
2018-06-13T17:52:08.130Z,2.50
2018-06-13T17:53:08.202Z,2.00
2018-06-13T17:54:08.177Z,2.10
2018-06-13T17:55:08.189Z,2.00
2018-06-13T17:56:08.136Z,2.00
2018-06-13T17:57:10.220Z,2.20
2018-06-13T17:58:08.160Z,2.20
2018-06-13T17:59:08.167Z,2.20
2018-06-13T18:00:08.155Z,2.20
2018-06-13T18:01:08.158Z,2.30
2018-06-13T18:02:08.238Z,1.90
2018-06-13T18:03:08.199Z,2.40
2018-06-13T18:04:08.213Z,2.30
2018-06-13T18:05:09.327Z,1.90
2018-06-13T18:06:08.216Z,2.60
2018-06-13T18:07:10.318Z,2.40
2018-06-13T18:08:08.275Z,2.20
2018-06-13T18:09:08.292Z,2.20
2018-06-13T18:10:08.256Z,2.20
2018-06-13T18:11:08.286Z,2.40
2018-06-13T18:12:08.305Z,1.70
2018-06-13T18:13:09.386Z,2.30
2018-06-13T18:14:08.315Z,2.10
2018-06-13T18:15:08.356Z,2.10
2018-06-13T18:16:08.346Z,2.50
2018-06-13T18:17:08.448Z,2.40
2018-06-13T18:18:08.395Z,2.40
2018-06-13T18:19:08.383Z,2.20
2018-06-13T18:20:08.419Z,2.30
2018-06-13T18:21:08.422Z,2.30
2018-06-13T18:22:08.401Z,2.40
2018-06-13T18:23:08.477Z,2.40
2018-06-13T18:24:08.435Z,2.40
2018-06-13T18:25:08.501Z,2.30
2018-06-13T18:26:08.449Z,2.50
2018-06-13T18:27:09.597Z,2.60
2018-06-13T18:28:08.503Z,1.90
2018-06-13T18:29:08.542Z,2.40
2018-06-13T18:30:08.508Z,2.30
2018-06-13T18:31:08.529Z,2.30
2018-06-13T18:32:09.622Z,2.60
2018-06-13T18:33:08.530Z,2.90
2018-06-13T18:34:09.631Z,2.10
2018-06-13T18:35:08.546Z,2.30
2018-06-13T18:36:09.653Z,2.10
2018-06-13T18:37:08.572Z,2.20
2018-06-13T18:38:08.718Z,2.20
2018-06-13T18:39:10.360Z,2.10
2018-06-13T18:40:08.710Z,2.20
2018-06-13T18:41:08.611Z,2.40
2018-06-13T18:42:08.620Z,2.50
2018-06-13T18:43:08.625Z,2.10
2018-06-13T18:44:09.757Z,2.00
2018-06-13T18:45:08.638Z,2.50
2018-06-13T18:46:08.693Z,2.20
2018-06-13T18:47:09.779Z,2.40
2018-06-13T18:48:08.679Z,2.30
2018-06-13T18:49:08.692Z,2.80
2018-06-13T18:50:08.818Z,2.30
2018-06-13T18:51:08.811Z,2.30
2018-06-13T18:52:08.932Z,2.20
2018-06-13T18:53:08.725Z,2.10
2018-06-13T18:54:08.750Z,2.50
2018-06-13T18:55:08.797Z,2.60
2018-06-13T18:56:08.925Z,2.30
2018-06-13T18:57:08.792Z,2.30
2018-06-13T18:58:09.974Z,2.50
2018-06-13T18:59:08.817Z,2.30
2018-06-13T19:00:08.807Z,2.00
2018-06-13T19:01:08.950Z,2.30
2018-06-13T19:02:08.840Z,2.50
2018-06-13T19:03:13.496Z,2.20
2018-06-13T19:04:08.886Z,2.50
2018-06-13T19:05:08.985Z,2.20
2018-06-13T19:06:08.880Z,2.30
2018-06-13T19:07:09.101Z,2.20
2018-06-13T19:08:08.911Z,2.70
2018-06-13T19:09:09.147Z,2.40
2018-06-13T19:10:08.939Z,1.90
2018-06-13T19:11:14.101Z,2.30
2018-06-13T19:12:08.989Z,2.50
2018-06-13T19:13:10.079Z,2.60
2018-06-13T19:14:08.992Z,2.40
2018-06-13T19:15:11.122Z,2.30
2018-06-13T19:16:09.006Z,2.40
2018-06-13T19:17:09.210Z,2.60
2018-06-13T19:18:09.014Z,2.60
2018-06-13T19:19:09.026Z,2.40
2018-06-13T19:20:10.143Z,2.30
2018-06-13T19:21:09.055Z,2.40
2018-06-13T19:22:10.139Z,2.50
2018-06-13T19:23:09.130Z,2.80
2018-06-13T19:24:09.190Z,2.90
2018-06-13T19:25:09.188Z,3.00
2018-06-13T19:26:10.310Z,2.80
2018-06-13T19:27:09.158Z,2.50
2018-06-13T19:28:09.301Z,2.60
2018-06-13T19:29:09.120Z,2.70
2018-06-13T19:30:09.230Z,2.60
2018-06-13T19:31:09.172Z,2.90
2018-06-13T19:32:11.335Z,2.40
2018-06-13T19:33:09.162Z,2.40
2018-06-13T19:34:09.321Z,2.60
2018-06-13T19:35:09.207Z,2.50
2018-06-13T19:36:09.307Z,2.90
2018-06-13T19:37:09.273Z,3.20
2018-06-13T19:38:09.327Z,2.80
2018-06-13T19:39:09.242Z,2.80
2018-06-13T19:40:10.459Z,3.10
2018-06-13T19:41:09.258Z,2.70
2018-06-13T19:42:09.326Z,2.90
2018-06-13T19:43:09.320Z,2.90
2018-06-13T19:44:09.344Z,3.20
2018-06-13T19:45:09.330Z,3.70
2018-06-13T19:46:09.378Z,4.00
2018-06-13T19:47:09.422Z,3.40
2018-06-13T19:48:09.571Z,3.00
2018-06-13T19:49:09.347Z,2.90
2018-06-13T19:50:09.496Z,3.20
2018-06-13T19:51:09.365Z,2.80
2018-06-13T19:52:09.419Z,3.70
2018-06-13T19:53:09.473Z,3.10
2018-06-13T19:54:11.492Z,2.80
2018-06-13T19:55:09.390Z,3.20
2018-06-13T19:56:09.612Z,3.20
2018-06-13T19:57:09.468Z,3.40
2018-06-13T19:58:10.522Z,3.30
2018-06-13T19:59:09.440Z,3.30
2018-06-13T20:00:09.617Z,3.40
2018-06-13T20:01:09.489Z,3.00
2018-06-13T20:02:09.659Z,2.90
2018-06-13T20:03:09.496Z,3.10
2018-06-13T20:04:10.701Z,2.90
2018-06-13T20:05:09.532Z,3.30
2018-06-13T20:06:10.694Z,3.10